createdAt,value
2018-08-16T00:00:53.326Z,9.07
2018-08-16T00:03:56.856Z,10.10
2018-08-16T00:07:00.388Z,13.37
2018-08-16T00:10:05.431Z,11.40
2018-08-16T00:13:08.945Z,10.40
2018-08-16T00:16:12.476Z,11.20
2018-08-16T00:19:15.991Z,12.73
2018-08-16T00:22:19.495Z,10.60
2018-08-16T00:25:23.011Z,10.90
2018-08-16T00:28:26.555Z,9.53
2018-08-16T00:31:30.075Z,9.37
2018-08-16T00:34:33.552Z,11.20
2018-08-16T00:37:43.539Z,9.70
2018-08-16T00:40:47.013Z,10.80
2018-08-16T00:43:50.514Z,8.67
2018-08-16T00:46:53.980Z,8.37
2018-08-16T00:49:57.552Z,8.50
2018-08-16T00:53:01.052Z,8.27
2018-08-16T00:56:04.588Z,7.17
2018-08-16T00:59:08.081Z,13.40
2018-08-16T01:02:11.598Z,7.27
2018-08-16T01:05:15.352Z,8.17
2018-08-16T01:08:18.843Z,9.30
2018-08-16T01:11:22.340Z,7.80
2018-08-16T01:14:25.834Z,9.03
2018-08-16T01:17:29.340Z,9.40
2018-08-16T01:20:32.815Z,8.43
2018-08-16T01:23:36.334Z,7.50
2018-08-16T01:26:39.867Z,7.80
2018-08-16T01:29:43.359Z,7.67
2018-08-16T01:32:46.867Z,7.80
2018-08-16T01:35:50.347Z,7.50
2018-08-16T01:38:53.859Z,7.17
2018-08-16T01:41:57.349Z,8.57
2018-08-16T01:45:00.920Z,7.70
2018-08-16T01:48:04.440Z,7.03
2018-08-16T01:51:08.098Z,8.90
2018-08-16T01:54:11.608Z,7.37
2018-08-16T01:57:15.075Z,8.23
2018-08-16T02:00:18.591Z,8.20
2018-08-16T02:03:22.071Z,9.50
2018-08-16T02:06:25.552Z,9.33
2018-08-16T02:09:29.055Z,9.20
2018-08-16T02:12:32.591Z,8.97
2018-08-16T02:15:36.079Z,10.30
2018-08-16T02:18:39.588Z,9.13
2018-08-16T02:21:43.139Z,9.27
2018-08-16T02:24:46.671Z,13.00
2018-08-16T02:27:50.207Z,11.53
2018-08-16T02:30:53.728Z,10.43
2018-08-16T02:33:57.272Z,10.80
2018-08-16T02:37:00.765Z,9.80
2018-08-16T02:40:04.869Z,11.70
2018-08-16T02:43:08.352Z,13.43
2018-08-16T02:46:11.863Z,11.10
2018-08-16T02:49:15.355Z,11.00
2018-08-16T02:52:18.865Z,10.30
2018-08-16T02:55:22.379Z,11.20
2018-08-16T02:58:25.883Z,10.70
2018-08-16T03:01:29.424Z,13.43
2018-08-16T03:04:32.895Z,12.00
2018-08-16T03:07:36.754Z,11.17
2018-08-16T03:10:40.225Z,11.13
2018-08-16T03:13:43.712Z,10.87
2018-08-16T03:16:47.247Z,10.67
2018-08-16T03:19:50.716Z,10.47
2018-08-16T03:22:54.183Z,9.43
2018-08-16T03:25:57.763Z,10.53
2018-08-16T03:29:01.251Z,11.03
2018-08-16T03:32:04.815Z,8.07
2018-08-16T03:35:08.317Z,9.70
2018-08-16T03:38:11.812Z,15.87
2018-08-16T03:41:15.305Z,9.80
2018-08-16T03:44:18.796Z,8.23
2018-08-16T03:47:22.287Z,8.23
2018-08-16T03:50:25.759Z,7.90
2018-08-16T03:53:29.227Z,8.30
2018-08-16T03:56:32.895Z,11.90
2018-08-16T03:59:36.383Z,12.67
2018-08-16T04:02:39.879Z,10.67
2018-08-16T04:05:43.343Z,12.27
2018-08-16T04:08:46.837Z,12.37
2018-08-16T04:11:50.307Z,12.60
2018-08-16T04:14:53.891Z,13.40
2018-08-16T04:17:57.396Z,13.60
2018-08-16T04:21:00.883Z,12.83
2018-08-16T04:24:04.423Z,12.50
2018-08-16T04:27:07.947Z,13.60
2018-08-16T04:30:11.451Z,13.90
2018-08-16T04:33:14.944Z,15.73
2018-08-16T04:36:18.427Z,21.63
2018-08-16T04:39:21.919Z,19.43
2018-08-16T04:42:25.439Z,19.73
2018-08-16T04:45:28.935Z,34.38
2018-08-16T04:48:32.575Z,21.80
2018-08-16T04:51:36.036Z,23.13
2018-08-16T04:54:39.518Z,23.97
2018-08-16T04:57:43.019Z,28.93
2018-08-16T05:00:46.510Z,21.87
2018-08-16T05:03:49.999Z,26.10
2018-08-16T05:06:53.555Z,28.90
2018-08-16T05:09:57.126Z,29.70
2018-08-16T05:13:00.623Z,24.77
2018-08-16T05:16:04.211Z,28.87
2018-08-16T05:19:07.751Z,25.87
2018-08-16T05:22:11.235Z,23.53
2018-08-16T05:25:14.742Z,21.83
2018-08-16T05:28:18.242Z,21.77
2018-08-16T05:31:21.783Z,21.03
2018-08-16T05:34:25.287Z,18.50
2018-08-16T05:37:28.768Z,19.10
2018-08-16T05:40:32.258Z,17.40
2018-08-16T05:43:35.787Z,16.17
2018-08-16T05:46:39.294Z,14.57
2018-08-16T05:49:42.983Z,12.23
2018-08-16T05:52:46.469Z,15.47
2018-08-16T05:55:49.986Z,10.77
2018-08-16T05:58:53.578Z,10.77
2018-08-16T06:01:57.067Z,10.00
2018-08-16T06:05:00.599Z,14.83
2018-08-16T06:08:04.104Z,58.50
2018-08-16T06:11:07.671Z,65.10
2018-08-16T06:14:11.192Z,61.30
2018-08-16T06:17:15.052Z,6.30
2018-08-16T06:20:18.555Z,6.03
2018-08-16T06:23:22.083Z,5.93
2018-08-16T06:26:25.588Z,6.83
2018-08-16T06:29:29.085Z,6.47
2018-08-16T06:32:32.609Z,5.60
2018-08-16T06:35:36.154Z,5.55
2018-08-16T06:38:39.699Z,5.93
2018-08-16T06:41:43.209Z,6.10
2018-08-16T06:44:46.680Z,8.00
2018-08-16T06:47:50.174Z,9.07
2018-08-16T06:50:53.690Z,9.00
2018-08-16T06:53:57.166Z,8.17
2018-08-16T06:57:00.667Z,6.70
2018-08-16T07:00:05.218Z,6.90
2018-08-16T07:03:08.955Z,7.00
2018-08-16T07:06:12.435Z,6.80
2018-08-16T07:09:15.932Z,6.37
2018-08-16T07:12:19.508Z,6.40
2018-08-16T07:15:22.968Z,5.67
2018-08-16T07:18:26.435Z,5.63
2018-08-16T07:21:29.927Z,4.97
2018-08-16T07:24:33.493Z,4.77
2018-08-16T07:27:36.949Z,4.67
2018-08-16T07:30:40.844Z,5.15
2018-08-16T07:33:44.341Z,5.47
2018-08-16T07:36:47.861Z,6.33
2018-08-16T07:39:51.355Z,5.70
2018-08-16T07:42:54.855Z,6.85
2018-08-16T07:45:58.396Z,4.90
2018-08-16T07:49:02.046Z,5.00
2018-08-16T07:52:05.742Z,5.70
2018-08-16T07:55:09.995Z,5.03
2018-08-16T07:58:13.576Z,4.90
2018-08-16T08:01:17.093Z,4.58
2018-08-16T08:04:20.586Z,4.37
2018-08-16T08:07:24.112Z,5.37
2018-08-16T08:10:27.727Z,4.22
2018-08-16T08:13:31.248Z,4.60
2018-08-16T08:16:34.735Z,4.90
2018-08-16T08:19:38.371Z,6.25
2018-08-16T08:22:42.084Z,3.77
2018-08-16T08:25:45.568Z,5.05
2018-08-16T08:28:49.097Z,3.95
2018-08-16T08:31:52.597Z,4.08
2018-08-16T08:34:56.144Z,5.17
2018-08-16T08:38:19.215Z,4.90
2018-08-16T08:41:22.816Z,8.18
2018-08-16T08:44:27.828Z,4.72
2018-08-16T08:47:37.588Z,3.77
2018-08-16T08:50:41.108Z,4.08
2018-08-16T08:54:55.307Z,4.35
2018-08-16T08:58:09.844Z,5.97
2018-08-16T09:01:13.327Z,6.10
2018-08-16T09:04:16.812Z,3.90
2018-08-16T09:07:21.121Z,4.00
2018-08-16T09:11:16.322Z,3.62
2018-08-16T09:14:31.059Z,4.30
2018-08-16T09:17:34.564Z,4.28
2018-08-16T09:20:38.111Z,4.28
2018-08-16T09:23:41.736Z,3.58
2018-08-16T09:26:45.732Z,3.72
2018-08-16T09:30:25.259Z,3.95
2018-08-16T09:33:39.941Z,4.17
2018-08-16T09:36:43.519Z,4.00
2018-08-16T09:39:47.027Z,4.30
2018-08-16T09:42:50.519Z,2.90
2018-08-16T09:47:16.531Z,3.37
2018-08-16T09:50:19.996Z,3.80
2018-08-16T09:53:23.704Z,4.53
2018-08-16T09:56:27.203Z,4.40
2018-08-16T09:59:30.916Z,4.30
2018-08-16T10:02:34.416Z,3.83
2018-08-16T10:05:37.918Z,5.80
2018-08-16T10:08:41.413Z,4.10
2018-08-16T10:11:45.499Z,4.33
2018-08-16T10:14:48.983Z,3.93
2018-08-16T10:17:53.564Z,5.67
2018-08-16T10:20:57.333Z,4.40
2018-08-16T10:24:00.875Z,4.17
2018-08-16T10:27:04.835Z,4.05
2018-08-16T10:30:09.312Z,4.83
2018-08-16T10:33:12.815Z,5.40
2018-08-16T10:36:16.343Z,5.47
2018-08-16T10:39:19.843Z,5.00
2018-08-16T10:42:23.364Z,5.60
2018-08-16T10:45:26.877Z,4.00
2018-08-16T10:48:30.725Z,4.57
2018-08-16T10:51:34.351Z,4.37
2018-08-16T10:54:37.863Z,4.63
2018-08-16T10:57:41.359Z,3.97
2018-08-16T11:00:44.848Z,4.93
2018-08-16T11:03:48.419Z,4.47
2018-08-16T11:06:51.879Z,4.63
2018-08-16T11:09:55.379Z,3.83
2018-08-16T11:12:58.863Z,4.50
2018-08-16T11:16:02.399Z,4.10
2018-08-16T11:19:06.000Z,3.73
2018-08-16T11:22:09.484Z,3.83
2018-08-16T11:25:13.008Z,5.60
2018-08-16T11:28:16.491Z,4.17
2018-08-16T11:31:21.991Z,3.73
2018-08-16T11:34:25.667Z,3.77
2018-08-16T11:37:29.524Z,4.10
2018-08-16T11:40:33.876Z,4.73
2018-08-16T11:43:40.319Z,4.47
2018-08-16T11:46:43.894Z,3.83
2018-08-16T11:49:47.314Z,4.30
2018-08-16T11:52:50.813Z,4.43
2018-08-16T11:55:54.367Z,4.37
2018-08-16T11:58:57.887Z,3.97
2018-08-16T12:02:01.417Z,3.13
2018-08-16T12:05:04.891Z,3.40
2018-08-16T12:08:08.400Z,3.27
2018-08-16T12:11:11.904Z,3.60
2018-08-16T12:14:15.407Z,3.80
2018-08-16T12:17:18.916Z,3.00
2018-08-16T12:20:22.412Z,3.40
2018-08-16T12:23:26.311Z,3.67
2018-08-16T12:26:29.884Z,3.80
2018-08-16T12:29:33.423Z,3.60
2018-08-16T12:32:37.740Z,4.20
2018-08-16T12:35:41.327Z,3.47
2018-08-16T12:38:44.971Z,4.60
2018-08-16T12:41:48.562Z,2.93
2018-08-16T12:44:52.088Z,4.17
2018-08-16T12:47:55.570Z,3.27
2018-08-16T12:50:59.244Z,3.43
2018-08-16T12:54:02.836Z,3.60
2018-08-16T12:57:06.340Z,3.50
2018-08-16T13:00:13.862Z,3.57
2018-08-16T13:03:17.375Z,3.43
2018-08-16T13:06:20.897Z,3.00
2018-08-16T13:09:24.788Z,2.90
2018-08-16T13:12:28.407Z,3.30
2018-08-16T13:15:31.956Z,2.97
2018-08-16T13:18:35.696Z,3.70
2018-08-16T13:21:39.614Z,4.03
2018-08-16T13:24:43.115Z,3.47
2018-08-16T13:27:46.698Z,4.07
2018-08-16T13:30:50.152Z,6.33
2018-08-16T13:33:53.680Z,4.27
2018-08-16T13:36:57.175Z,3.47
2018-08-16T13:40:00.707Z,5.93
2018-08-16T13:43:04.278Z,5.17
2018-08-16T13:46:07.783Z,4.60
2018-08-16T13:49:11.281Z,3.47
2018-08-16T13:52:14.855Z,3.63
2018-08-16T13:55:18.419Z,4.10
2018-08-16T13:58:21.894Z,4.27
2018-08-16T14:01:25.375Z,4.50
2018-08-16T14:04:28.856Z,3.70
2018-08-16T14:07:32.368Z,4.53
2018-08-16T14:10:35.863Z,3.67
2018-08-16T14:13:39.335Z,4.10
2018-08-16T14:16:42.831Z,3.67
2018-08-16T14:19:46.359Z,4.70
2018-08-16T14:22:49.855Z,4.00
2018-08-16T14:25:53.395Z,4.50
2018-08-16T14:28:56.867Z,4.20
2018-08-16T14:32:00.412Z,3.93
2018-08-16T14:35:03.934Z,3.53
2018-08-16T14:38:07.453Z,7.23
2018-08-16T14:41:10.967Z,3.85
2018-08-16T14:44:14.465Z,4.20
2018-08-16T14:47:17.944Z,3.80
2018-08-16T14:50:21.459Z,3.40
2018-08-16T14:53:24.969Z,4.23
2018-08-16T14:56:28.483Z,3.60
2018-08-16T14:59:31.991Z,3.30
2018-08-16T15:02:35.551Z,4.90
2018-08-16T15:05:39.027Z,7.87
2018-08-16T15:08:42.519Z,3.47
2018-08-16T15:11:45.996Z,3.50
2018-08-16T15:14:49.504Z,3.83
2018-08-16T15:17:52.975Z,3.90
2018-08-16T15:20:56.479Z,3.90
2018-08-16T15:23:59.961Z,4.60
2018-08-16T15:27:03.499Z,5.10
2018-08-16T15:30:07.603Z,3.83
2018-08-16T15:33:11.266Z,4.03
2018-08-16T15:36:14.788Z,4.00
2018-08-16T15:39:18.267Z,3.93
2018-08-16T15:42:21.761Z,3.87
2018-08-16T15:45:25.220Z,3.60
2018-08-16T15:48:28.711Z,3.93
2018-08-16T15:51:32.246Z,4.00
2018-08-16T15:54:35.763Z,3.03
2018-08-16T15:57:39.271Z,3.23
2018-08-16T16:00:42.744Z,4.00
2018-08-16T16:03:46.236Z,3.47
2018-08-16T16:06:49.733Z,3.47
2018-08-16T16:09:53.511Z,4.23
2018-08-16T16:12:57.053Z,3.00
2018-08-16T16:16:00.539Z,5.30
2018-08-16T16:19:04.051Z,4.00
2018-08-16T16:22:07.575Z,4.90
2018-08-16T16:25:11.102Z,3.77
2018-08-16T16:28:14.643Z,3.47
2018-08-16T16:31:18.151Z,3.30
2018-08-16T16:34:21.670Z,3.73
2018-08-16T16:37:31.701Z,3.30
2018-08-16T16:40:35.169Z,3.47
2018-08-16T16:43:38.715Z,3.73
2018-08-16T16:46:42.292Z,3.40
2018-08-16T16:49:45.866Z,5.10
2018-08-16T16:52:49.369Z,4.73
2018-08-16T16:55:52.887Z,3.50
2018-08-16T16:58:56.343Z,3.70
2018-08-16T17:01:59.847Z,3.30
2018-08-16T17:05:03.413Z,3.53
2018-08-16T17:08:06.943Z,9.50
2018-08-16T17:11:10.467Z,4.37
2018-08-16T17:14:14.010Z,3.97
2018-08-16T17:17:17.511Z,3.47
2018-08-16T17:20:21.002Z,4.30
2018-08-16T17:23:24.507Z,3.10
2018-08-16T17:26:28.014Z,3.80
2018-08-16T17:29:31.507Z,3.83
2018-08-16T17:32:35.000Z,4.10
2018-08-16T17:35:38.620Z,4.27
2018-08-16T17:38:42.108Z,3.87
2018-08-16T17:41:46.135Z,4.10
2018-08-16T17:44:49.615Z,4.60
2018-08-16T17:47:53.315Z,4.83
2018-08-16T17:50:56.791Z,4.77
2018-08-16T17:54:00.291Z,5.20
2018-08-16T17:57:04.167Z,5.80
2018-08-16T18:00:09.447Z,4.20
2018-08-16T18:03:12.979Z,4.87
2018-08-16T18:06:16.508Z,4.17
2018-08-16T18:09:20.014Z,4.30
2018-08-16T18:12:23.486Z,4.80
2018-08-16T18:15:27.095Z,4.50
2018-08-16T18:18:30.776Z,4.70
2018-08-16T18:21:34.283Z,4.07
2018-08-16T18:24:37.759Z,4.43
2018-08-16T18:27:41.255Z,5.00
2018-08-16T18:30:44.734Z,4.90
2018-08-16T18:33:48.207Z,4.93
2018-08-16T18:36:51.769Z,5.78
2018-08-16T18:39:55.203Z,5.60
2018-08-16T18:42:58.736Z,4.67
2018-08-16T18:46:02.231Z,6.60
2018-08-16T18:49:05.740Z,5.67
2018-08-16T18:52:09.238Z,5.30
2018-08-16T18:55:12.723Z,5.47
2018-08-16T18:58:16.239Z,8.80
2018-08-16T19:01:19.735Z,4.80
2018-08-16T19:04:23.263Z,5.23
2018-08-16T19:07:26.962Z,5.53
2018-08-16T19:10:30.511Z,5.63
2018-08-16T19:13:34.024Z,5.27
2018-08-16T19:16:37.919Z,4.87
2018-08-16T19:19:41.756Z,4.97
2018-08-16T19:22:45.358Z,5.20
2018-08-16T19:25:51.834Z,5.50
2018-08-16T19:28:55.711Z,5.57
2018-08-16T19:31:59.420Z,5.50
2018-08-16T19:35:03.022Z,5.03
2018-08-16T19:38:07.029Z,4.80
2018-08-16T19:41:10.541Z,4.73
2018-08-16T19:44:14.849Z,5.07
2018-08-16T19:47:18.673Z,5.10
2018-08-16T19:50:22.519Z,5.50
2018-08-16T19:53:26.119Z,4.50
2018-08-16T19:56:29.685Z,5.63
2018-08-16T19:59:33.692Z,5.17
2018-08-16T20:02:37.877Z,5.00
2018-08-16T20:05:41.459Z,4.80
2018-08-16T20:08:45.018Z,4.90
2018-08-16T20:11:48.539Z,5.07
2018-08-16T20:14:52.029Z,6.00
2018-08-16T20:17:56.568Z,4.73
2018-08-16T20:21:00.101Z,4.90
2018-08-16T20:24:03.726Z,5.43
2018-08-16T20:27:07.184Z,4.87
2018-08-16T20:30:10.746Z,5.20
2018-08-16T20:33:14.237Z,4.30
2018-08-16T20:36:17.745Z,4.37
2018-08-16T20:39:21.251Z,5.40
2018-08-16T20:42:24.735Z,4.70
2018-08-16T20:45:28.300Z,4.50
2018-08-16T20:48:32.111Z,4.43
2018-08-16T20:51:35.588Z,4.80
2018-08-16T20:54:39.250Z,5.62
2018-08-16T20:57:42.830Z,4.13
2018-08-16T21:00:46.317Z,5.17
2018-08-16T21:03:49.791Z,4.40
2018-08-16T21:06:53.299Z,4.40
2018-08-16T21:09:57.590Z,3.90
2018-08-16T21:13:01.099Z,4.13
2018-08-16T21:16:05.290Z,5.30
2018-08-16T21:19:08.807Z,4.77
2018-08-16T21:22:12.404Z,4.07
2018-08-16T21:25:15.912Z,6.50
2018-08-16T21:28:19.442Z,4.63
2018-08-16T21:31:22.983Z,4.93
2018-08-16T21:34:26.535Z,4.43
2018-08-16T21:37:29.971Z,5.13
2018-08-16T21:40:33.578Z,4.33
2018-08-16T21:43:37.050Z,4.77
2018-08-16T21:46:40.551Z,4.17
2018-08-16T21:49:44.040Z,5.37
2018-08-16T21:52:47.527Z,4.60
2018-08-16T21:55:51.015Z,4.50
2018-08-16T21:58:54.511Z,4.30
2018-08-16T22:01:57.986Z,4.20
2018-08-16T22:05:01.466Z,6.23
2018-08-16T22:08:13.900Z,4.77
2018-08-16T22:11:17.471Z,4.47
2018-08-16T22:14:20.939Z,4.23
2018-08-16T22:17:24.425Z,4.10
2018-08-16T22:20:27.958Z,4.07
2018-08-16T22:23:31.500Z,3.67
2018-08-16T22:26:35.048Z,3.93
2018-08-16T22:29:38.532Z,4.73
2018-08-16T22:32:42.080Z,3.87
2018-08-16T22:35:45.539Z,3.80
2018-08-16T22:38:49.051Z,6.90
2018-08-16T22:41:52.546Z,4.23
2018-08-16T22:44:56.084Z,4.00
2018-08-16T22:47:59.661Z,3.40
2018-08-16T22:51:03.203Z,3.60
2018-08-16T22:54:06.796Z,3.27
2018-08-16T22:57:10.552Z,4.80
2018-08-16T23:00:14.070Z,3.67
2018-08-16T23:03:17.607Z,4.80
2018-08-16T23:06:21.110Z,4.10
2018-08-16T23:09:24.668Z,3.73
2018-08-16T23:12:28.180Z,3.63
2018-08-16T23:15:31.759Z,3.00
2018-08-16T23:18:35.327Z,3.10
2018-08-16T23:21:38.887Z,4.23
2018-08-16T23:24:42.395Z,3.93
2018-08-16T23:27:45.870Z,4.13
2018-08-16T23:30:49.387Z,4.70
2018-08-16T23:33:53.011Z,7.03
2018-08-16T23:36:56.518Z,3.90
2018-08-16T23:40:00.267Z,3.80
2018-08-16T23:43:03.880Z,4.70
2018-08-16T23:46:07.432Z,4.27
2018-08-16T23:49:10.944Z,3.80
2018-08-16T23:52:14.499Z,4.23
2018-08-16T23:55:17.999Z,4.45
2018-08-16T23:58:21.563Z,7.60
